sensor_id;sensor_type;location;lat;lon;timestamp;pressure;altitude;pressure_sealevel;temperature;humidity
55301;BME280;58302;51.446;-2.000;2023-07-13T00:00:17;99771.66;;;12.76;100.00
55301;BME280;58302;51.446;-2.000;2023-07-13T00:02:43;99762.28;;;12.82;100.00
55301;BME280;58302;51.446;-2.000;2023-07-13T00:05:09;99750.19;;;12.88;100.00
55301;BME280;58302;51.446;-2.000;2023-07-13T00:07:35;99752.59;;;12.90;100.00
55301;BME280;58302;51.446;-2.000;2023-07-13T00:10:02;99748.88;;;12.86;100.00
55301;BME280;58302;51.446;-2.000;2023-07-13T00:12:29;99747.03;;;12.81;100.00
55301;BME280;58302;51.446;-2.000;2023-07-13T00:14:58;99744.38;;;12.76;100.00
55301;BME280;58302;51.446;-2.000;2023-07-13T00:17:25;99749.84;;;12.76;100.00
55301;BME280;58302;51.446;-2.000;2023-07-13T00:19:52;99747.13;;;12.76;100.00
55301;BME280;58302;51.446;-2.000;2023-07-13T00:22:18;99747.91;;;12.77;100.00
55301;BME280;58302;51.446;-2.000;2023-07-13T00:24:44;99744.88;;;12.78;100.00
55301;BME280;58302;51.446;-2.000;2023-07-13T00:27:10;99744.00;;;12.83;100.00
55301;BME280;58302;51.446;-2.000;2023-07-13T00:29:36;99749.69;;;12.86;100.00
55301;BME280;58302;51.446;-2.000;2023-07-13T00:32:03;99750.25;;;12.83;100.00
55301;BME280;58302;51.446;-2.000;2023-07-13T00:34:29;99760.94;;;12.80;100.00
55301;BME280;58302;51.446;-2.000;2023-07-13T00:36:55;99759.72;;;12.72;100.00
55301;BME280;58302;51.446;-2.000;2023-07-13T00:39:20;99763.13;;;12.64;100.00
55301;BME280;58302;51.446;-2.000;2023-07-13T00:41:46;99781.75;;;12.57;100.00
55301;BME280;58302;51.446;-2.000;2023-07-13T00:44:16;99776.97;;;12.49;100.00
55301;BME280;58302;51.446;-2.000;2023-07-13T00:46:42;99775.19;;;12.39;100.00
55301;BME280;58302;51.446;-2.000;2023-07-13T00:49:09;99777.75;;;12.30;100.00
55301;BME280;58302;51.446;-2.000;2023-07-13T00:51:40;99785.19;;;12.25;100.00
55301;BME280;58302;51.446;-2.000;2023-07-13T00:54:08;99776.72;;;12.26;100.00
55301;BME280;58302;51.446;-2.000;2023-07-13T00:56:35;99779.66;;;12.30;100.00
55301;BME280;58302;51.446;-2.000;2023-07-13T00:59:02;99777.47;;;12.32;100.00
55301;BME280;58302;51.446;-2.000;2023-07-13T01:01:28;99775.75;;;12.36;100.00
55301;BME280;58302;51.446;-2.000;2023-07-13T01:03:54;99769.22;;;12.37;100.00
55301;BME280;58302;51.446;-2.000;2023-07-13T01:06:20;99771.72;;;12.33;100.00
55301;BME280;58302;51.446;-2.000;2023-07-13T01:08:46;99774.00;;;12.26;100.00
55301;BME280;58302;51.446;-2.000;2023-07-13T01:11:12;99771.03;;;12.23;100.00
55301;BME280;58302;51.446;-2.000;2023-07-13T01:13:37;99770.25;;;12.22;100.00
55301;BME280;58302;51.446;-2.000;2023-07-13T01:16:05;99767.50;;;12.22;100.00
55301;BME280;58302;51.446;-2.000;2023-07-13T01:18:37;99763.91;;;12.27;100.00
55301;BME280;58302;51.446;-2.000;2023-07-13T01:21:04;99759.50;;;12.31;100.00
55301;BME280;58302;51.446;-2.000;2023-07-13T01:23:30;99752.06;;;12.36;100.00
55301;BME280;58302;51.446;-2.000;2023-07-13T01:25:56;99753.63;;;12.43;100.00
55301;BME280;58302;51.446;-2.000;2023-07-13T01:28:22;99749.78;;;12.44;100.00
55301;BME280;58302;51.446;-2.000;2023-07-13T01:30:52;99741.31;;;12.45;100.00
55301;BME280;58302;51.446;-2.000;2023-07-13T01:33:18;99741.38;;;12.40;100.00
55301;BME280;58302;51.446;-2.000;2023-07-13T01:35:45;99748.81;;;12.34;100.00
55301;BME280;58302;51.446;-2.000;2023-07-13T01:38:12;99755.94;;;12.30;100.00
55301;BME280;58302;51.446;-2.000;2023-07-13T01:40:38;99746.47;;;12.28;100.00
55301;BME280;58302;51.446;-2.000;2023-07-13T01:43:06;99755.75;;;12.27;100.00
55301;BME280;58302;51.446;-2.000;2023-07-13T01:45:32;99749.75;;;12.25;100.00
55301;BME280;58302;51.446;-2.000;2023-07-13T01:47:57;99747.69;;;12.17;100.00
55301;BME280;58302;51.446;-2.000;2023-07-13T01:50:24;99753.59;;;12.05;100.00
55301;BME280;58302;51.446;-2.000;2023-07-13T01:52:50;99748.25;;;11.95;100.00
55301;BME280;58302;51.446;-2.000;2023-07-13T01:55:15;99751.69;;;11.81;100.00
55301;BME280;58302;51.446;-2.000;2023-07-13T01:57:41;99749.56;;;11.73;100.00
55301;BME280;58302;51.446;-2.000;2023-07-13T02:00:08;99758.53;;;11.74;100.00
55301;BME280;58302;51.446;-2.000;2023-07-13T02:02:34;99750.84;;;11.81;100.00
55301;BME280;58302;51.446;-2.000;2023-07-13T02:05:00;99740.44;;;11.88;100.00
55301;BME280;58302;51.446;-2.000;2023-07-13T02:07:26;99734.66;;;11.95;100.00
55301;BME280;58302;51.446;-2.000;2023-07-13T02:09:52;99713.31;;;12.02;100.00
55301;BME280;58302;51.446;-2.000;2023-07-13T02:12:17;99708.91;;;12.06;100.00
55301;BME280;58302;51.446;-2.000;2023-07-13T02:14:45;99704.75;;;12.08;100.00
55301;BME280;58302;51.446;-2.000;2023-07-13T02:17:11;99702.03;;;12.08;100.00
55301;BME280;58302;51.446;-2.000;2023-07-13T02:19:37;99699.13;;;12.05;100.00
55301;BME280;58302;51.446;-2.000;2023-07-13T02:22:03;99697.25;;;12.00;100.00
55301;BME280;58302;51.446;-2.000;2023-07-13T02:24:29;99697.25;;;12.00;100.00
55301;BME280;58302;51.446;-2.000;2023-07-13T02:26:55;99704.13;;;11.98;100.00
55301;BME280;58302;51.446;-2.000;2023-07-13T02:29:20;99700.13;;;11.90;100.00
55301;BME280;58302;51.446;-2.000;2023-07-13T02:31:46;99705.94;;;11.83;100.00
55301;BME280;58302;51.446;-2.000;2023-07-13T02:34:12;99700.22;;;11.80;100.00
55301;BME280;58302;51.446;-2.000;2023-07-13T02:36:38;99701.81;;;11.81;100.00
55301;BME280;58302;51.446;-2.000;2023-07-13T02:39:04;99698.25;;;11.85;100.00
55301;BME280;58302;51.446;-2.000;2023-07-13T02:41:31;99694.44;;;11.86;100.00
55301;BME280;58302;51.446;-2.000;2023-07-13T02:43:57;99691.50;;;11.83;100.00
55301;BME280;58302;51.446;-2.000;2023-07-13T02:46:28;99702.44;;;11.78;100.00
55301;BME280;58302;51.446;-2.000;2023-07-13T02:48:54;99706.81;;;11.74;100.00
55301;BME280;58302;51.446;-2.000;2023-07-13T02:51:20;99689.94;;;11.77;100.00
55301;BME280;58302;51.446;-2.000;2023-07-13T02:53:46;99693.41;;;11.82;100.00
55301;BME280;58302;51.446;-2.000;2023-07-13T02:56:12;99692.25;;;11.89;100.00
55301;BME280;58302;51.446;-2.000;2023-07-13T02:58:38;99680.00;;;11.86;100.00
55301;BME280;58302;51.446;-2.000;2023-07-13T03:01:08;99686.38;;;11.81;100.00
55301;BME280;58302;51.446;-2.000;2023-07-13T03:03:34;99689.13;;;11.76;100.00
55301;BME280;58302;51.446;-2.000;2023-07-13T03:06:01;99683.19;;;11.69;100.00
55301;BME280;58302;51.446;-2.000;2023-07-13T03:08:27;99696.88;;;11.64;100.00
55301;BME280;58302;51.446;-2.000;2023-07-13T03:11:04;99682.50;;;11.58;100.00
55301;BME280;58302;51.446;-2.000;2023-07-13T03:13:30;99683.91;;;11.56;100.00
55301;BME280;58302;51.446;-2.000;2023-07-13T03:15:56;99686.13;;;11.54;100.00
55301;BME280;58302;51.446;-2.000;2023-07-13T03:18:22;99684.53;;;11.48;100.00
55301;BME280;58302;51.446;-2.000;2023-07-13T03:20:51;99684.59;;;11.43;100.00
55301;BME280;58302;51.446;-2.000;2023-07-13T03:23:17;99691.75;;;11.39;100.00
55301;BME280;58302;51.446;-2.000;2023-07-13T03:25:43;99694.50;;;11.33;100.00
55301;BME280;58302;51.446;-2.000;2023-07-13T03:28:11;99698.38;;;11.27;100.00
55301;BME280;58302;51.446;-2.000;2023-07-13T03:30:36;99696.78;;;11.26;100.00
55301;BME280;58302;51.446;-2.000;2023-07-13T03:33:02;99689.38;;;11.32;100.00
55301;BME280;58302;51.446;-2.000;2023-07-13T03:35:28;99681.72;;;11.34;100.00
55301;BME280;58302;51.446;-2.000;2023-07-13T03:37:54;99681.97;;;11.38;100.00
55301;BME280;58302;51.446;-2.000;2023-07-13T03:40:20;99682.66;;;11.48;100.00
55301;BME280;58302;51.446;-2.000;2023-07-13T03:42:45;99674.66;;;11.57;100.00
55301;BME280;58302;51.446;-2.000;2023-07-13T03:45:11;99672.66;;;11.63;100.00
55301;BME280;58302;51.446;-2.000;2023-07-13T03:47:37;99679.47;;;11.65;100.00
55301;BME280;58302;51.446;-2.000;2023-07-13T03:50:02;99663.13;;;11.65;100.00
55301;BME280;58302;51.446;-2.000;2023-07-13T03:52:28;99661.78;;;11.63;100.00
55301;BME280;58302;51.446;-2.000;2023-07-13T03:54:54;99674.66;;;11.57;100.00
55301;BME280;58302;51.446;-2.000;2023-07-13T03:57:20;99675.50;;;11.52;100.00
55301;BME280;58302;51.446;-2.000;2023-07-13T03:59:46;99673.16;;;11.46;100.00
55301;BME280;58302;51.446;-2.000;2023-07-13T04:02:11;99672.69;;;11.39;100.00
55301;BME280;58302;51.446;-2.000;2023-07-13T04:04:37;99675.47;;;11.33;100.00
55301;BME280;58302;51.446;-2.000;2023-07-13T04:07:06;99683.69;;;11.28;100.00
55301;BME280;58302;51.446;-2.000;2023-07-13T04:09:34;99684.53;;;11.24;100.00
55301;BME280;58302;51.446;-2.000;2023-07-13T04:12:00;99694.09;;;11.21;100.00
55301;BME280;58302;51.446;-2.000;2023-07-13T04:14:25;99691.38;;;11.21;100.00
55301;BME280;58302;51.446;-2.000;2023-07-13T04:16:51;99693.00;;;11.22;100.00
55301;BME280;58302;51.446;-2.000;2023-07-13T04:19:17;99692.41;;;11.25;100.00
55301;BME280;58302;51.446;-2.000;2023-07-13T04:21:42;99694.56;;;11.28;100.00
55301;BME280;58302;51.446;-2.000;2023-07-13T04:24:08;99698.28;;;11.38;100.00
55301;BME280;58302;51.446;-2.000;2023-07-13T04:26:34;99702.56;;;11.44;100.00
55301;BME280;58302;51.446;-2.000;2023-07-13T04:29:04;99695.16;;;11.49;100.00
55301;BME280;58302;51.446;-2.000;2023-07-13T04:31:30;99692.88;;;11.56;100.00
55301;BME280;58302;51.446;-2.000;2023-07-13T04:33:56;99696.34;;;11.62;100.00
55301;BME280;58302;51.446;-2.000;2023-07-13T04:36:22;99704.75;;;11.66;100.00
55301;BME280;58302;51.446;-2.000;2023-07-13T04:38:47;99704.41;;;11.72;100.00
55301;BME280;58302;51.446;-2.000;2023-07-13T04:41:17;99704.34;;;11.77;100.00
55301;BME280;58302;51.446;-2.000;2023-07-13T04:43:43;99708.16;;;11.81;100.00
55301;BME280;58302;51.446;-2.000;2023-07-13T04:46:10;99701.53;;;11.88;100.00
55301;BME280;58302;51.446;-2.000;2023-07-13T04:48:36;99697.91;;;11.92;100.00
55301;BME280;58302;51.446;-2.000;2023-07-13T04:51:02;99706.53;;;11.99;100.00
55301;BME280;58302;51.446;-2.000;2023-07-13T04:53:32;99716.50;;;12.09;100.00
55301;BME280;58302;51.446;-2.000;2023-07-13T04:56:00;99709.50;;;12.22;100.00
55301;BME280;58302;51.446;-2.000;2023-07-13T04:58:25;99700.88;;;12.33;100.00
55301;BME280;58302;51.446;-2.000;2023-07-13T05:00:51;99696.16;;;12.39;100.00
55301;BME280;58302;51.446;-2.000;2023-07-13T05:03:17;99695.22;;;12.49;100.00
55301;BME280;58302;51.446;-2.000;2023-07-13T05:05:43;99705.16;;;12.58;100.00
55301;BME280;58302;51.446;-2.000;2023-07-13T05:08:09;99706.06;;;12.68;100.00
55301;BME280;58302;51.446;-2.000;2023-07-13T05:10:35;99700.53;;;12.73;100.00
55301;BME280;58302;51.446;-2.000;2023-07-13T05:13:01;99698.53;;;12.78;100.00
55301;BME280;58302;51.446;-2.000;2023-07-13T05:15:26;99693.81;;;12.84;100.00
55301;BME280;58302;51.446;-2.000;2023-07-13T05:17:52;99691.72;;;12.95;100.00
55301;BME280;58302;51.446;-2.000;2023-07-13T05:20:18;99675.09;;;13.10;100.00
55301;BME280;58302;51.446;-2.000;2023-07-13T05:22:44;99671.00;;;13.26;100.00
55301;BME280;58302;51.446;-2.000;2023-07-13T05:25:12;99669.38;;;13.39;100.00
55301;BME280;58302;51.446;-2.000;2023-07-13T05:27:38;99673.00;;;13.48;100.00
55301;BME280;58302;51.446;-2.000;2023-07-13T05:30:04;99666.13;;;13.64;100.00
55301;BME280;58302;51.446;-2.000;2023-07-13T05:32:30;99658.03;;;13.73;100.00
55301;BME280;58302;51.446;-2.000;2023-07-13T05:34:55;99664.00;;;13.75;100.00
55301;BME280;58302;51.446;-2.000;2023-07-13T05:37:21;99666.53;;;13.71;100.00
55301;BME280;58302;51.446;-2.000;2023-07-13T05:39:47;99668.44;;;13.71;100.00
55301;BME280;58302;51.446;-2.000;2023-07-13T05:42:13;99675.03;;;13.70;100.00
55301;BME280;58302;51.446;-2.000;2023-07-13T05:44:38;99680.50;;;13.70;100.00
55301;BME280;58302;51.446;-2.000;2023-07-13T05:47:04;99689.50;;;13.70;100.00
55301;BME280;58302;51.446;-2.000;2023-07-13T05:49:30;99704.75;;;13.71;100.00
55301;BME280;58302;51.446;-2.000;2023-07-13T05:51:56;99712.63;;;13.73;100.00
55301;BME280;58302;51.446;-2.000;2023-07-13T05:54:22;99724.16;;;13.84;100.00
55301;BME280;58302;51.446;-2.000;2023-07-13T05:56:48;99728.00;;;13.96;100.00
55301;BME280;58302;51.446;-2.000;2023-07-13T05:59:17;99733.06;;;14.03;100.00
55301;BME280;58302;51.446;-2.000;2023-07-13T06:01:42;99741.22;;;14.17;100.00
55301;BME280;58302;51.446;-2.000;2023-07-13T06:04:08;99751.91;;;14.41;100.00
55301;BME280;58302;51.446;-2.000;2023-07-13T06:06:34;99759.38;;;14.63;100.00
55301;BME280;58302;51.446;-2.000;2023-07-13T06:09:00;99775.16;;;14.88;100.00
55301;BME280;58302;51.446;-2.000;2023-07-13T06:11:26;99794.84;;;15.13;100.00
55301;BME280;58302;51.446;-2.000;2023-07-13T06:13:52;99817.78;;;15.25;100.00
55301;BME280;58302;51.446;-2.000;2023-07-13T06:16:18;99832.50;;;15.38;100.00
55301;BME280;58302;51.446;-2.000;2023-07-13T06:18:44;99859.47;;;15.45;100.00
55301;BME280;58302;51.446;-2.000;2023-07-13T06:21:11;99884.06;;;15.36;100.00
55301;BME280;58302;51.446;-2.000;2023-07-13T06:23:37;99903.66;;;15.29;100.00
55301;BME280;58302;51.446;-2.000;2023-07-13T06:26:04;99912.53;;;15.13;100.00
55301;BME280;58302;51.446;-2.000;2023-07-13T06:28:30;99909.44;;;14.92;100.00
55301;BME280;58302;51.446;-2.000;2023-07-13T06:30:57;99900.75;;;14.76;100.00
55301;BME280;58302;51.446;-2.000;2023-07-13T06:33:23;99892.56;;;14.62;100.00
55301;BME280;58302;51.446;-2.000;2023-07-13T06:35:49;99892.84;;;14.61;100.00
55301;BME280;58302;51.446;-2.000;2023-07-13T06:38:14;99903.53;;;14.62;100.00
55301;BME280;58302;51.446;-2.000;2023-07-13T06:40:40;99895.38;;;14.71;100.00
55301;BME280;58302;51.446;-2.000;2023-07-13T06:43:06;99888.69;;;14.77;100.00
55301;BME280;58302;51.446;-2.000;2023-07-13T06:45:34;99897.78;;;14.86;100.00
55301;BME280;58302;51.446;-2.000;2023-07-13T06:48:00;99896.13;;;14.99;100.00
55301;BME280;58302;51.446;-2.000;2023-07-13T06:50:26;99888.81;;;15.08;100.00
55301;BME280;58302;51.446;-2.000;2023-07-13T06:52:52;99891.19;;;15.01;100.00
55301;BME280;58302;51.446;-2.000;2023-07-13T06:55:18;99900.91;;;14.93;100.00
55301;BME280;58302;51.446;-2.000;2023-07-13T06:57:44;99903.81;;;14.74;100.00
55301;BME280;58302;51.446;-2.000;2023-07-13T07:00:10;99904.31;;;14.63;100.00
55301;BME280;58302;51.446;-2.000;2023-07-13T07:02:35;99904.44;;;14.58;100.00
55301;BME280;58302;51.446;-2.000;2023-07-13T07:05:01;99904.31;;;14.49;100.00
55301;BME280;58302;51.446;-2.000;2023-07-13T07:07:27;99893.78;;;14.42;100.00
55301;BME280;58302;51.446;-2.000;2023-07-13T07:09:53;99885.56;;;14.42;100.00
55301;BME280;58302;51.446;-2.000;2023-07-13T07:12:19;99890.53;;;14.40;100.00
55301;BME280;58302;51.446;-2.000;2023-07-13T07:14:45;99871.09;;;14.42;100.00
55301;BME280;58302;51.446;-2.000;2023-07-13T07:17:10;99879.44;;;14.51;100.00
55301;BME280;58302;51.446;-2.000;2023-07-13T07:19:37;99868.44;;;14.78;100.00
55301;BME280;58302;51.446;-2.000;2023-07-13T07:22:03;99857.16;;;15.16;100.00
55301;BME280;58302;51.446;-2.000;2023-07-13T07:24:29;99849.53;;;15.71;100.00
55301;BME280;58302;51.446;-2.000;2023-07-13T07:26:54;99855.09;;;16.37;100.00
55301;BME280;58302;51.446;-2.000;2023-07-13T07:29:20;99843.44;;;17.23;100.00
55301;BME280;58302;51.446;-2.000;2023-07-13T07:31:46;99825.28;;;18.42;100.00
55301;BME280;58302;51.446;-2.000;2023-07-13T07:34:12;99861.94;;;19.05;100.00
55301;BME280;58302;51.446;-2.000;2023-07-13T07:36:38;99940.91;;;19.64;100.00
55301;BME280;58302;51.446;-2.000;2023-07-13T07:39:03;100033.44;;;19.44;100.00
55301;BME280;58302;51.446;-2.000;2023-07-13T07:41:30;100077.63;;;18.97;100.00
55301;BME280;58302;51.446;-2.000;2023-07-13T07:43:56;100080.84;;;18.35;100.00
55301;BME280;58302;51.446;-2.000;2023-07-13T07:46:21;100077.00;;;18.10;100.00
55301;BME280;58302;51.446;-2.000;2023-07-13T07:48:47;100068.91;;;17.87;100.00
55301;BME280;58302;51.446;-2.000;2023-07-13T07:51:13;100071.78;;;17.48;100.00
55301;BME280;58302;51.446;-2.000;2023-07-13T07:53:39;100078.31;;;17.21;100.00
55301;BME280;58302;51.446;-2.000;2023-07-13T07:56:04;100058.72;;;17.05;100.00
55301;BME280;58302;51.446;-2.000;2023-07-13T07:58:30;100046.44;;;17.02;100.00
55301;BME280;58302;51.446;-2.000;2023-07-13T08:01:03;100041.22;;;16.83;100.00
55301;BME280;58302;51.446;-2.000;2023-07-13T08:03:30;100047.31;;;16.72;100.00
55301;BME280;58302;51.446;-2.000;2023-07-13T08:05:55;100037.84;;;16.64;100.00
55301;BME280;58302;51.446;-2.000;2023-07-13T08:08:21;100028.91;;;16.72;100.00
55301;BME280;58302;51.446;-2.000;2023-07-13T08:10:47;100024.25;;;16.81;100.00
55301;BME280;58302;51.446;-2.000;2023-07-13T08:13:13;100017.97;;;16.90;100.00
55301;BME280;58302;51.446;-2.000;2023-07-13T08:15:39;100022.72;;;16.98;100.00
55301;BME280;58302;51.446;-2.000;2023-07-13T08:18:05;100018.81;;;16.99;100.00
55301;BME280;58302;51.446;-2.000;2023-07-13T08:20:32;100023.00;;;16.96;100.00
55301;BME280;58302;51.446;-2.000;2023-07-13T08:22:59;100018.03;;;16.98;100.00
55301;BME280;58302;51.446;-2.000;2023-07-13T08:25:24;100013.47;;;17.02;100.00
55301;BME280;58302;51.446;-2.000;2023-07-13T08:27:50;100014.31;;;17.11;100.00
55301;BME280;58302;51.446;-2.000;2023-07-13T08:30:16;100028.84;;;17.03;100.00
55301;BME280;58302;51.446;-2.000;2023-07-13T08:32:42;100030.09;;;16.89;100.00
55301;BME280;58302;51.446;-2.000;2023-07-13T08:35:08;100030.38;;;16.78;100.00
55301;BME280;58302;51.446;-2.000;2023-07-13T08:37:34;100031.97;;;16.79;100.00
55301;BME280;58302;51.446;-2.000;2023-07-13T08:39:59;100018.59;;;16.78;100.00
55301;BME280;58302;51.446;-2.000;2023-07-13T08:42:32;100015.38;;;16.84;100.00
55301;BME280;58302;51.446;-2.000;2023-07-13T08:45:07;100014.09;;;16.82;100.00
55301;BME280;58302;51.446;-2.000;2023-07-13T08:47:37;100020.53;;;16.77;100.00
55301;BME280;58302;51.446;-2.000;2023-07-13T08:50:04;100016.09;;;16.68;100.00
55301;BME280;58302;51.446;-2.000;2023-07-13T08:52:31;100013.72;;;16.75;100.00
55301;BME280;58302;51.446;-2.000;2023-07-13T08:54:58;100005.56;;;16.92;100.00
55301;BME280;58302;51.446;-2.000;2023-07-13T08:57:31;100012.72;;;17.10;100.00
55301;BME280;58302;51.446;-2.000;2023-07-13T08:59:58;100014.22;;;17.34;100.00
55301;BME280;58302;51.446;-2.000;2023-07-13T09:05:16;100038.00;;;17.90;100.00
55301;BME280;58302;51.446;-2.000;2023-07-13T09:10:20;100046.47;;;18.76;100.00
55301;BME280;58302;51.446;-2.000;2023-07-13T09:17:48;100120.59;;;19.28;100.00
55301;BME280;58302;51.446;-2.000;2023-07-13T09:20:50;100138.75;;;19.29;100.00
55301;BME280;58302;51.446;-2.000;2023-07-13T09:23:10;100152.63;;;18.94;100.00
55301;BME280;58302;51.446;-2.000;2023-07-13T09:25:37;100147.81;;;18.56;100.00
55301;BME280;58302;51.446;-2.000;2023-07-13T09:30:46;100121.56;;;17.55;100.00
55301;BME280;58302;51.446;-2.000;2023-07-13T09:33:16;100101.03;;;17.04;100.00
55301;BME280;58302;51.446;-2.000;2023-07-13T09:35:42;100079.28;;;16.76;100.00
55301;BME280;58302;51.446;-2.000;2023-07-13T09:38:12;100046.88;;;16.65;100.00
55301;BME280;58302;51.446;-2.000;2023-07-13T09:43:24;100003.97;;;16.60;100.00
55301;BME280;58302;51.446;-2.000;2023-07-13T09:45:50;99981.53;;;16.98;100.00
55301;BME280;58302;51.446;-2.000;2023-07-13T09:48:16;99953.31;;;17.49;100.00
55301;BME280;58302;51.446;-2.000;2023-07-13T09:50:42;99944.75;;;17.77;100.00
55301;BME280;58302;51.446;-2.000;2023-07-13T09:53:16;99944.19;;;18.09;100.00
55301;BME280;58302;51.446;-2.000;2023-07-13T09:55:43;99966.47;;;18.72;100.00
55301;BME280;58302;51.446;-2.000;2023-07-13T10:00:35;100009.97;;;18.87;100.00
55301;BME280;58302;51.446;-2.000;2023-07-13T10:03:05;100021.50;;;19.10;100.00
55301;BME280;58302;51.446;-2.000;2023-07-13T10:05:38;100031.59;;;19.78;100.00
55301;BME280;58302;51.446;-2.000;2023-07-13T10:08:04;100037.94;;;20.77;100.00
55301;BME280;58302;51.446;-2.000;2023-07-13T10:10:32;100060.34;;;22.02;100.00
55301;BME280;58302;51.446;-2.000;2023-07-13T10:12:58;100144.16;;;22.99;100.00
55301;BME280;58302;51.446;-2.000;2023-07-13T10:15:24;100204.28;;;23.42;100.00
55301;BME280;58302;51.446;-2.000;2023-07-13T10:17:51;100184.13;;;23.92;100.00
55301;BME280;58302;51.446;-2.000;2023-07-13T10:20:18;100242.56;;;24.70;100.00
55301;BME280;58302;51.446;-2.000;2023-07-13T10:25:23;100540.41;;;24.28;100.00
55301;BME280;58302;51.446;-2.000;2023-07-13T10:27:53;100547.47;;;24.38;100.00
55301;BME280;58302;51.446;-2.000;2023-07-13T10:30:21;100559.38;;;23.82;100.00
55301;BME280;58302;51.446;-2.000;2023-07-13T10:32:50;100563.84;;;23.22;100.00
55301;BME280;58302;51.446;-2.000;2023-07-13T10:35:18;100560.94;;;22.82;100.00
55301;BME280;58302;51.446;-2.000;2023-07-13T10:37:47;100549.81;;;22.12;100.00
55301;BME280;58302;51.446;-2.000;2023-07-13T10:40:16;100479.91;;;21.49;100.00
55301;BME280;58302;51.446;-2.000;2023-07-13T10:42:45;100359.38;;;20.35;100.00
55301;BME280;58302;51.446;-2.000;2023-07-13T10:45:20;100296.53;;;19.72;100.00
55301;BME280;58302;51.446;-2.000;2023-07-13T10:47:47;100225.22;;;18.98;100.00
55301;BME280;58302;51.446;-2.000;2023-07-13T10:50:19;100189.63;;;18.32;100.00
55301;BME280;58302;51.446;-2.000;2023-07-13T10:52:47;100159.66;;;17.96;100.00
55301;BME280;58302;51.446;-2.000;2023-07-13T10:55:35;100110.16;;;17.96;100.00
55301;BME280;58302;51.446;-2.000;2023-07-13T10:58:14;100089.94;;;18.27;100.00
55301;BME280;58302;51.446;-2.000;2023-07-13T11:00:46;100088.56;;;18.67;100.00
55301;BME280;58302;51.446;-2.000;2023-07-13T11:03:14;100102.94;;;18.90;100.00
55301;BME280;58302;51.446;-2.000;2023-07-13T11:05:40;100127.25;;;18.80;100.00
55301;BME280;58302;51.446;-2.000;2023-07-13T11:08:16;100155.78;;;18.58;100.00
55301;BME280;58302;51.446;-2.000;2023-07-13T11:10:46;100163.88;;;18.20;100.00
55301;BME280;58302;51.446;-2.000;2023-07-13T11:15:57;100168.38;;;17.41;100.00
55301;BME280;58302;51.446;-2.000;2023-07-13T11:18:23;100156.28;;;16.80;100.00
55301;BME280;58302;51.446;-2.000;2023-07-13T11:20:50;100122.22;;;16.58;100.00
55301;BME280;58302;51.446;-2.000;2023-07-13T11:23:27;100096.56;;;16.77;100.00
55301;BME280;58302;51.446;-2.000;2023-07-13T11:25:53;100082.09;;;16.94;100.00
55301;BME280;58302;51.446;-2.000;2023-07-13T11:28:21;100097.22;;;17.22;100.00
55301;BME280;58302;51.446;-2.000;2023-07-13T11:33:47;100117.91;;;18.11;100.00
55301;BME280;58302;51.446;-2.000;2023-07-13T11:36:15;100142.50;;;18.51;100.00
55301;BME280;58302;51.446;-2.000;2023-07-13T11:38:42;100150.22;;;19.01;100.00
55301;BME280;58302;51.446;-2.000;2023-07-13T11:41:14;100179.63;;;19.56;100.00
55301;BME280;58302;51.446;-2.000;2023-07-13T11:43:41;100211.25;;;20.39;100.00
55301;BME280;58302;51.446;-2.000;2023-07-13T11:48:39;100255.13;;;21.27;100.00
55301;BME280;58302;51.446;-2.000;2023-07-13T11:51:05;100275.16;;;21.24;100.00
55301;BME280;58302;51.446;-2.000;2023-07-13T11:53:43;100299.34;;;21.48;100.00
55301;BME280;58302;51.446;-2.000;2023-07-13T11:56:10;100319.91;;;21.72;100.00
55301;BME280;58302;51.446;-2.000;2023-07-13T11:58:36;100321.28;;;21.78;100.00
55301;BME280;58302;51.446;-2.000;2023-07-13T12:01:02;100329.75;;;22.18;100.00
55301;BME280;58302;51.446;-2.000;2023-07-13T12:03:31;100402.38;;;23.01;100.00
55301;BME280;58302;51.446;-2.000;2023-07-13T12:05:58;100583.50;;;23.42;100.00
55301;BME280;58302;51.446;-2.000;2023-07-13T12:08:25;100606.22;;;22.86;100.00
55301;BME280;58302;51.446;-2.000;2023-07-13T12:11:02;100612.84;;;22.94;100.00
55301;BME280;58302;51.446;-2.000;2023-07-13T12:13:35;100621.50;;;23.04;100.00
55301;BME280;58302;51.446;-2.000;2023-07-13T12:16:01;100623.22;;;23.46;100.00
55301;BME280;58302;51.446;-2.000;2023-07-13T12:18:30;100631.56;;;23.58;100.00
55301;BME280;58302;51.446;-2.000;2023-07-13T12:20:58;100642.53;;;23.79;100.00
55301;BME280;58302;51.446;-2.000;2023-07-13T12:25:51;100632.69;;;23.57;100.00
55301;BME280;58302;51.446;-2.000;2023-07-13T12:28:30;100634.56;;;22.58;100.00
55301;BME280;58302;51.446;-2.000;2023-07-13T12:31:00;100614.16;;;21.29;100.00
55301;BME280;58302;51.446;-2.000;2023-07-13T12:33:29;100484.50;;;19.31;100.00
55301;BME280;58302;51.446;-2.000;2023-07-13T12:35:57;100401.00;;;17.99;100.00
55301;BME280;58302;51.446;-2.000;2023-07-13T12:38:26;100303.69;;;17.24;100.00
55301;BME280;58302;51.446;-2.000;2023-07-13T12:40:52;100239.97;;;16.82;100.00
55301;BME280;58302;51.446;-2.000;2023-07-13T12:43:19;100220.88;;;16.77;100.00
55301;BME280;58302;51.446;-2.000;2023-07-13T12:45:56;100204.69;;;16.98;100.00
55301;BME280;58302;51.446;-2.000;2023-07-13T12:48:22;100199.59;;;17.45;100.00
55301;BME280;58302;51.446;-2.000;2023-07-13T12:50:48;100199.56;;;17.76;100.00
55301;BME280;58302;51.446;-2.000;2023-07-13T12:53:19;100186.19;;;18.01;100.00
55301;BME280;58302;51.446;-2.000;2023-07-13T12:55:47;100212.56;;;18.10;100.00
55301;BME280;58302;51.446;-2.000;2023-07-13T12:58:17;100216.97;;;18.20;100.00
55301;BME280;58302;51.446;-2.000;2023-07-13T13:00:47;100239.78;;;18.38;100.00
55301;BME280;58302;51.446;-2.000;2023-07-13T13:03:21;100253.53;;;18.29;100.00
55301;BME280;58302;51.446;-2.000;2023-07-13T13:05:47;100224.56;;;18.23;100.00